Terminal Aerodrome Forecast
Issued by NWS Brownsville, TX

Current Version | Previous Version | Text Only | Print | Product List | Glossary Off
Versions: 1 2 3 4 5 6 7 8 9 10 11 12 13 14 15 16 17 18 19 20 21 22 23 24 25 26 27 28 29 30 31 32 33 34

000
FTUS44 KBRO 050520
TAFBRO
TAF
KBRO 050520Z 0506/0606 31011G17KT 5SM -RA BR OVC007
      TEMPO 0506/0510 2SM -RA BR BKN005
     FM051300 30013G19KT 6SM -RA BR OVC007
     FM051500 28012G18KT P6SM VCSH OVC015
     FM051700 27013KT P6SM OVC025
     FM051900 30014KT P6SM FEW035 SCT100
     FM060000 33007KT P6SM SKC=

USA.gov is the U.S. government's official web portal to all federal, state and local government web resources and services.